Time;durP1;ratioP1;P1;durP2;ratioP2;P2;SDS_P1;SDS_P2;PMS_P1;PMS_P2;Temp;Humidity;BMP_temperature;BMP_pressure;BME280_temperature;BME280_humidity;BME280_pressure;Samples;Min_cycle;Max_cycle;Signal;HPM_P1;HPM_P2
2024/03/08 00:01:55;;;;;;;53.15;33.20;;;;;;;5.63;100.00;140183.84;5070804;28;20134;-70
2024/03/08 00:04:21;;;;;;;60.30;33.95;;;;;;;5.84;100.00;140220.72;5070853;28;20041;-70
2024/03/08 00:06:47;;;;;;;61.42;34.15;;;;;;;5.78;100.00;140201.44;5056867;28;20036;-71
2024/03/08 00:09:14;;;;;;;53.08;32.20;;;;;;;5.81;100.00;140255.78;5060153;28;20059;-71
2024/03/08 00:11:39;;;;;;;58.58;34.13;;;;;;;6.50;100.00;140312.94;5070675;28;20037;-70
2024/03/08 00:14:06;;;;;;;59.03;34.30;;;;;;;6.32;100.00;140406.94;5060973;28;20042;-71
2024/03/08 00:16:32;;;;;;;58.85;33.38;;;;;;;5.99;100.00;140253.63;5052254;28;20028;-71
2024/03/08 00:18:58;;;;;;;57.45;33.05;;;;;;;6.36;100.00;140334.69;5069147;28;20115;-71
2024/03/08 00:21:24;;;;;;;55.22;33.25;;;;;;;6.43;100.00;140253.03;5052301;28;20471;-71
2024/03/08 00:23:49;;;;;;;53.60;32.05;;;;;;;5.90;100.00;140249.06;5051624;28;20455;-71
2024/03/08 00:26:14;;;;;;;52.65;32.03;;;;;;;5.58;100.00;140204.03;5070097;28;20107;-71
2024/03/08 00:28:40;;;;;;;55.20;33.30;;;;;;;6.21;100.00;140335.03;5070477;28;20037;-71
2024/03/08 00:31:06;;;;;;;56.58;34.22;;;;;;;6.31;100.00;140365.13;5068800;28;20032;-74
2024/03/08 00:33:32;;;;;;;52.67;33.78;;;;;;;5.78;100.00;140214.22;5069977;28;20467;-71
2024/03/08 00:35:58;;;;;;;54.55;33.80;;;;;;;6.24;100.00;140329.31;5055084;28;20085;-76
2024/03/08 00:38:23;;;;;;;54.75;33.10;;;;;;;6.27;100.00;140356.84;5070311;28;20475;-70
2024/03/08 00:40:49;;;;;;;57.70;33.53;;;;;;;6.23;100.00;140422.81;5069568;28;20051;-71
2024/03/08 00:43:15;;;;;;;55.33;32.85;;;;;;;5.66;100.00;140287.88;5069726;28;20104;-71
2024/03/08 00:45:42;;;;;;;54.15;32.97;;;;;;;5.71;100.00;140297.13;5051889;28;20032;-70
2024/03/08 00:48:09;;;;;;;54.15;33.83;;;;;;;6.07;100.00;140402.69;5068861;28;20028;-70
2024/03/08 00:50:34;;;;;;;54.88;33.03;;;;;;;6.26;100.00;140448.94;5068348;28;20428;-70
2024/03/08 00:53:00;;;;;;;57.17;33.80;;;;;;;6.19;100.00;140403.13;5069553;28;20035;-70
2024/03/08 00:55:26;;;;;;;54.72;32.78;;;;;;;5.74;100.00;140319.56;5069501;28;20111;-70
2024/03/08 00:57:53;;;;;;;50.15;32.70;;;;;;;6.48;100.00;140439.66;5067996;28;20036;-70
2024/03/08 01:00:20;;;;;;;56.95;33.40;;;;;;;6.09;100.00;140394.66;5069565;28;20033;-70
2024/03/08 01:02:46;;;;;;;51.90;32.28;;;;;;;5.87;100.00;140352.84;5051580;28;20024;-72
2024/03/08 01:05:13;;;;;;;54.85;32.65;;;;;;;6.28;100.00;140458.78;5069628;28;20055;-70
2024/03/08 01:07:39;;;;;;;54.00;32.47;;;;;;;5.83;100.00;140362.56;5069528;28;20105;-71
2024/03/08 01:10:09;;;;;;;53.30;33.10;;;;;;;6.32;100.00;140456.88;5050890;28;20487;-69
2024/03/08 01:12:35;;;;;;;52.45;32.40;;;;;;;6.42;100.00;140490.72;5067570;28;20457;-70
2024/03/08 01:15:00;;;;;;;53.17;31.70;;;;;;;6.55;100.00;140503.56;5069106;28;20025;-71
2024/03/08 01:17:26;;;;;;;53.75;32.53;;;;;;;6.33;100.00;140475.72;5051346;28;20025;-70
2024/03/08 01:19:53;;;;;;;49.70;31.73;;;;;;;6.01;100.00;140458.75;5069767;28;20422;-69
2024/03/08 01:22:18;;;;;;;49.13;31.17;;;;;;;6.05;100.00;140488.63;5069147;28;20652;-70
2024/03/08 01:24:44;;;;;;;48.88;31.65;;;;;;;6.31;100.00;140607.69;5069057;28;20115;-70
2024/03/08 01:27:09;;;;;;;51.47;31.83;;;;;;;5.96;100.00;140491.50;5050787;28;20028;-75
2024/03/08 01:29:35;;;;;;;49.75;32.10;;;;;;;6.25;100.00;140566.59;5068724;28;20036;-70
2024/03/08 01:32:01;;;;;;;53.55;31.35;;;;;;;5.75;100.00;140400.97;5068482;28;20036;-73
2024/03/08 01:34:28;;;;;;;50.28;31.75;;;;;;;5.85;100.00;140408.16;5069298;28;20031;-70
2024/03/08 01:36:56;;;;;;;47.65;30.27;;;;;;;6.54;100.00;140545.81;5069107;28;20437;-70
2024/03/08 01:39:21;;;;;;;44.10;30.13;;;;;;;6.63;100.00;140531.38;5069099;28;20032;-70
2024/03/08 01:41:47;;;;;;;45.35;30.20;;;;;;;6.63;100.00;140516.03;5060378;28;20032;-70
2024/03/08 01:44:17;;;;;;;48.03;30.38;;;;;;;6.53;100.00;140516.72;5069066;28;20029;-70
2024/03/08 01:46:44;;;;;;;48.00;29.33;;;;;;;6.29;100.00;140353.94;5067464;28;20540;-71
2024/03/08 01:49:12;;;;;;;43.95;28.67;;;;;;;6.63;100.00;140523.69;5068567;28;20082;-70
2024/03/08 01:51:40;;;;;;;44.13;28.85;;;;;;;6.49;100.00;140382.13;5067458;28;20499;-71
2024/03/08 01:54:06;;;;;;;41.45;28.23;;;;;;;5.83;100.00;140365.13;5067909;28;20036;-72
2024/03/08 01:56:31;;;;;;;41.58;28.50;;;;;;;6.50;100.00;140549.13;5068716;28;20044;-70
2024/03/08 01:58:59;;;;;;;42.17;28.33;;;;;;;6.48;100.00;140516.28;5069161;28;20486;-70
2024/03/08 02:01:25;;;;;;;40.90;28.33;;;;;;;6.12;100.00;140459.22;5067031;28;20032;-71
2024/03/08 02:03:51;;;;;;;40.53;27.80;;;;;;;6.16;100.00;140462.44;5075558;28;20043;-73
2024/03/08 02:06:16;;;;;;;40.75;28.02;;;;;;;6.56;100.00;140553.09;5073937;28;20040;-70
2024/03/08 02:08:45;;;;;;;40.55;27.60;;;;;;;6.53;100.00;140599.66;5068377;28;20032;-71
2024/03/08 02:11:12;;;;;;;44.88;27.98;;;;;;;6.45;100.00;140611.38;5068538;28;20060;-71
2024/03/08 02:13:37;;;;;;;42.22;28.40;;;;;;;5.53;100.00;140355.41;5049785;28;20036;-71
2024/03/08 02:16:04;;;;;;;41.03;27.45;;;;;;;5.96;100.00;140457.16;5068118;28;20028;-71
2024/03/08 02:18:30;;;;;;;43.60;27.65;;;;;;;5.63;100.00;140404.56;5049328;28;20035;-69
2024/03/08 02:20:57;;;;;;;42.75;27.88;;;;;;;6.46;100.00;140621.38;5049818;28;20527;-70
2024/03/08 02:23:24;;;;;;;38.53;26.92;;;;;;;6.46;100.00;140626.50;5068207;28;20059;-70
2024/03/08 02:25:50;;;;;;;41.95;27.42;;;;;;;6.58;100.00;140542.50;5068283;28;20036;-70
2024/03/08 02:28:18;;;;;;;41.80;28.13;;;;;;;6.61;100.00;140591.84;5068475;28;20029;-71
2024/03/08 02:30:44;;;;;;;38.58;26.52;;;;;;;6.83;100.00;140641.38;5050400;28;20035;-71
2024/03/08 02:33:09;;;;;;;41.60;27.38;;;;;;;6.77;100.00;140689.66;5068503;28;20040;-70
2024/03/08 02:35:36;;;;;;;42.85;28.33;;;;;;;6.18;100.00;140529.59;5066900;28;20487;-70
2024/03/08 02:38:03;;;;;;;39.25;27.25;;;;;;;6.69;100.00;140627.31;5066259;28;20040;-71
2024/03/08 02:40:29;;;;;;;38.55;26.67;;;;;;;5.95;100.00;140424.16;5066812;28;20040;-70
2024/03/08 02:42:54;;;;;;;39.35;27.10;;;;;;;6.66;100.00;140640.63;5068451;28;20044;-71
2024/03/08 02:45:20;;;;;;;43.10;27.40;;;;;;;6.27;100.00;140580.34;5067742;28;20426;-71
2024/03/08 02:47:46;;;;;;;40.10;26.83;;;;;;;6.39;100.00;140566.53;5050232;28;20032;-71
2024/03/08 02:50:11;;;;;;;39.53;26.80;;;;;;;6.20;100.00;140525.50;5067578;28;20056;-70
2024/03/08 02:52:37;;;;;;;39.88;27.73;;;;;;;7.09;100.00;140674.75;5068085;28;20032;-70
2024/03/08 02:55:03;;;;;;;38.78;26.45;;;;;;;6.71;100.00;140726.59;5049705;28;20043;-72
2024/03/08 02:57:31;;;;;;;42.40;26.33;;;;;;;6.59;100.00;140610.13;5049877;28;20021;-70
2024/03/08 02:59:59;;;;;;;38.58;26.27;;;;;;;6.81;100.00;140694.00;5067885;28;20030;-70
2024/03/08 03:02:25;;;;;;;40.15;26.25;;;;;;;6.80;100.00;140708.34;5067977;28;20102;-70
2024/03/08 03:04:50;;;;;;;41.05;26.90;;;;;;;6.33;100.00;140609.88;5070168;28;20524;-69
2024/03/08 03:07:16;;;;;;;40.50;26.27;;;;;;;6.82;100.00;140617.16;5060949;28;20090;-70
2024/03/08 03:09:42;;;;;;;35.92;25.35;;;;;;;7.25;100.00;140733.06;5071792;28;20479;-71
2024/03/08 03:12:08;;;;;;;39.67;26.35;;;;;;;7.10;100.00;140761.50;5071654;28;20051;-70
2024/03/08 03:14:38;;;;;;;38.33;27.55;;;;;;;6.98;100.00;140756.09;5069388;28;20025;-70
2024/03/08 03:17:04;;;;;;;37.42;26.92;;;;;;;6.81;100.00;140653.13;5071735;28;20032;-71
2024/03/08 03:19:30;;;;;;;34.92;25.52;;;;;;;6.46;100.00;140668.72;5072038;28;20071;-72
2024/03/08 03:21:55;;;;;;;37.97;25.65;;;;;;;7.08;100.00;140751.66;5071215;28;20063;-70
2024/03/08 03:24:21;;;;;;;36.78;26.73;;;;;;;6.97;100.00;140738.41;5071410;28;20036;-69
2024/03/08 03:26:48;;;;;;;44.10;27.30;;;;;;;6.55;100.00;140640.16;5071357;28;20051;-70
2024/03/08 03:29:14;;;;;;;37.00;26.90;;;;;;;6.89;100.00;140737.38;5071762;28;20028;-70
2024/03/08 03:31:41;;;;;;;39.08;26.60;;;;;;;6.12;100.00;140660.91;5071637;28;20449;-69
2024/03/08 03:34:08;;;;;;;42.45;28.98;;;;;;;6.72;100.00;140835.06;5071171;28;20036;-72
2024/03/08 03:36:37;;;;;;;40.13;28.33;;;;;;;6.49;100.00;140689.81;5070654;28;20032;-70
2024/03/08 03:39:15;;;;;;;41.03;27.35;;;;;;;7.09;100.00;140694.03;5052534;28;20078;-70
2024/03/08 03:41:41;;;;;;;43.03;28.05;;;;;;;7.08;100.00;140841.16;5053259;28;20032;-70
2024/03/08 03:44:08;;;;;;;41.30;28.33;;;;;;;7.12;100.00;140701.13;5071435;28;20552;-76
2024/03/08 03:46:34;;;;;;;39.30;27.38;;;;;;;7.00;100.00;140836.16;5065999;28;20434;-69
2024/03/08 03:48:59;;;;;;;40.50;26.83;;;;;;;6.28;100.00;140711.56;5070345;28;20107;-69
2024/03/08 03:51:25;;;;;;;36.63;26.65;;;;;;;6.96;100.00;140816.47;5052402;28;20538;-70
2024/03/08 03:53:51;;;;;;;39.03;26.73;;;;;;;6.89;100.00;140854.94;5070349;28;20111;-70
2024/03/08 03:56:16;;;;;;;41.22;27.17;;;;;;;6.47;100.00;140705.50;5068996;28;20113;-72
2024/03/08 03:58:42;;;;;;;38.72;26.98;;;;;;;6.41;100.00;140762.81;5070960;28;20042;-70
2024/03/08 04:01:08;;;;;;;41.45;27.55;;;;;;;6.97;100.00;140818.81;5052503;28;20078;-69
2024/03/08 04:03:33;;;;;;;39.38;26.85;;;;;;;6.97;100.00;140820.22;5068815;28;20024;-70
2024/03/08 04:05:58;;;;;;;38.25;26.42;;;;;;;6.70;100.00;140759.97;5069351;28;20025;-69
2024/03/08 04:08:24;;;;;;;41.60;26.90;;;;;;;7.03;100.00;140922.53;5069282;28;20041;-70
2024/03/08 04:10:50;;;;;;;38.88;26.70;;;;;;;6.81;100.00;140851.31;5068959;28;20036;-70
2024/03/08 04:13:16;;;;;;;46.80;29.88;;;;;;;7.02;100.00;140844.81;5068189;28;20051;-69
2024/03/08 04:15:44;;;;;;;46.22;30.85;;;;;;;6.91;100.00;140908.25;5069237;28;20028;-72
2024/03/08 04:18:09;;;;;;;42.15;27.40;;;;;;;6.88;100.00;140870.44;5069474;28;20028;-70
2024/03/08 04:20:35;;;;;;;41.00;27.63;;;;;;;6.75;100.00;140877.97;5069559;28;20070;-69
2024/03/08 04:23:01;;;;;;;40.35;27.08;;;;;;;6.97;100.00;140904.59;5069751;28;20021;-70
2024/03/08 04:25:27;;;;;;;46.35;30.67;;;;;;;6.78;100.00;140888.81;5067362;28;20518;-69
2024/03/08 04:27:52;;;;;;;37.97;27.27;;;;;;;7.29;100.00;140749.06;5068886;28;20071;-71
2024/03/08 04:30:18;;;;;;;42.45;27.83;;;;;;;6.96;100.00;140893.16;5050287;28;20115;-69
2024/03/08 04:32:49;;;;;;;40.40;27.42;;;;;;;6.91;100.00;140957.97;5068337;28;20514;-70
2024/03/08 04:35:15;;;;;;;40.50;26.23;;;;;;;6.96;100.00;140944.28;5066279;28;20035;-69
2024/03/08 04:37:41;;;;;;;40.53;26.90;;;;;;;6.76;100.00;140946.78;5067009;28;20036;-69
2024/03/08 04:40:07;;;;;;;40.05;27.05;;;;;;;6.89;100.00;140879.09;5069742;28;20056;-69
2024/03/08 04:42:33;;;;;;;43.30;28.67;;;;;;;6.36;100.00;140826.41;5065802;28;20036;-70
2024/03/08 04:44:58;;;;;;;40.72;27.40;;;;;;;6.90;100.00;140928.88;5049722;28;20112;-70
2024/03/08 04:47:24;;;;;;;42.72;27.15;;;;;;;6.12;100.00;140686.41;5049039;28;20086;-70
2024/03/08 04:49:50;;;;;;;46.13;29.17;;;;;;;6.77;100.00;140867.38;5067872;28;20550;-68
2024/03/08 04:52:16;;;;;;;38.80;28.15;;;;;;;6.78;100.00;140960.38;5070847;28;20024;-70
2024/03/08 04:54:41;;;;;;;38.42;28.10;;;;;;;7.05;100.00;140937.69;5077129;28;20044;-72
2024/03/08 04:57:07;;;;;;;37.35;27.13;;;;;;;6.79;100.00;140919.28;5052604;28;20123;-72
2024/03/08 04:59:33;;;;;;;42.60;28.38;;;;;;;6.69;100.00;140979.94;5050163;28;20024;-73
2024/03/08 05:01:58;;;;;;;40.15;28.35;;;;;;;5.95;100.00;140814.59;5068616;28;20052;-71
2024/03/08 05:04:24;;;;;;;38.33;27.13;;;;;;;6.71;100.00;140900.34;5065667;28;20039;-72
2024/03/08 05:06:49;;;;;;;40.17;27.30;;;;;;;7.32;100.00;140877.56;5068695;28;20571;-70
2024/03/08 05:09:15;;;;;;;37.05;26.60;;;;;;;6.97;100.00;140938.97;5049697;28;20057;-71
2024/03/08 05:11:43;;;;;;;37.65;27.23;;;;;;;7.04;100.00;141051.56;5068086;28;20419;-71
2024/03/08 05:14:09;;;;;;;37.67;26.83;;;;;;;7.00;100.00;140884.75;5050760;28;20024;-71
2024/03/08 05:16:35;;;;;;;37.88;27.45;;;;;;;7.19;100.00;140988.81;5067422;28;20024;-71
2024/03/08 05:19:01;;;;;;;39.85;27.38;;;;;;;6.97;100.00;141038.69;5066210;28;20035;-73
2024/03/08 05:21:26;;;;;;;35.88;25.90;;;;;;;7.10;100.00;140908.63;5067932;28;20494;-72
2024/03/08 05:23:52;;;;;;;38.65;27.10;;;;;;;6.62;100.00;140904.53;5067842;28;20031;-70
2024/03/08 05:26:17;;;;;;;40.17;27.70;;;;;;;7.22;100.00;141012.44;5067546;28;20093;-68
2024/03/08 05:28:43;;;;;;;39.67;26.40;;;;;;;6.87;100.00;140848.78;5066918;28;20449;-69
2024/03/08 05:31:08;;;;;;;43.15;30.00;;;;;;;6.65;100.00;140883.56;5066407;28;20558;-68
2024/03/08 05:33:36;;;;;;;43.63;30.13;;;;;;;6.87;100.00;140914.09;5066951;28;20063;-70
2024/03/08 05:36:02;;;;;;;45.08;30.77;;;;;;;7.32;100.00;140868.69;5048441;28;20398;-68
2024/03/08 05:38:28;;;;;;;49.15;32.42;;;;;;;7.57;100.00;141002.13;5067466;28;20111;-70
2024/03/08 05:40:54;;;;;;;50.85;34.55;;;;;;;7.52;100.00;140982.63;5068786;28;20028;-70
2024/03/08 05:43:20;;;;;;;62.63;39.33;;;;;;;7.48;100.00;140989.69;5067617;28;20034;-71
2024/03/08 05:45:46;;;;;;;57.97;36.55;;;;;;;7.48;100.00;140979.44;5068686;28;20868;-68
2024/03/08 05:48:14;;;;;;;57.40;37.63;;;;;;;7.43;100.00;141038.00;5066395;28;20048;-69
2024/03/08 05:50:39;;;;;;;47.55;32.47;;;;;;;6.80;100.00;140900.03;5065649;28;20434;-69
2024/03/08 05:53:06;;;;;;;49.97;34.08;;;;;;;7.57;100.00;140968.88;5066997;28;20040;-71
2024/03/08 05:55:34;;;;;;;51.88;35.38;;;;;;;7.69;100.00;140978.03;5067301;28;20064;-69
2024/03/08 05:58:01;;;;;;;49.63;36.25;;;;;;;6.91;100.00;140858.28;5051274;28;20547;-69
2024/03/08 06:00:26;;;;;;;48.08;34.80;;;;;;;7.34;100.00;140965.53;5077113;28;20044;-70
2024/03/08 06:02:52;;;;;;;47.90;35.85;;;;;;;7.50;100.00;141004.66;5074713;28;20040;-70
2024/03/08 06:05:17;;;;;;;45.83;32.60;;;;;;;7.75;100.00;141025.53;5067754;28;20513;-69
2024/03/08 06:07:43;;;;;;;48.63;34.88;;;;;;;7.18;100.00;140905.75;5057594;28;20032;-69
2024/03/08 06:10:10;;;;;;;40.67;29.38;;;;;;;7.65;100.00;141049.25;5067930;28;20027;-69
2024/03/08 06:12:40;;;;;;;37.53;26.95;;;;;;;7.17;100.00;140898.25;5068010;28;20029;-70
2024/03/08 06:15:06;;;;;;;37.83;26.50;;;;;;;7.26;100.00;141069.34;5068394;28;20025;-69
2024/03/08 06:17:32;;;;;;;39.08;27.52;;;;;;;7.18;100.00;140875.06;5067792;28;20040;-68
2024/03/08 06:19:57;;;;;;;40.70;28.30;;;;;;;7.22;100.00;140893.59;5055706;28;20039;-69
2024/03/08 06:22:23;;;;;;;42.17;28.63;;;;;;;7.70;100.00;140959.97;5068687;28;20394;-69
2024/03/08 06:24:48;;;;;;;42.60;28.88;;;;;;;7.54;100.00;141038.56;5067877;28;20040;-70
2024/03/08 06:27:15;;;;;;;37.90;27.00;;;;;;;7.68;100.00;141029.44;5068084;28;20453;-69
2024/03/08 06:29:40;;;;;;;42.70;29.73;;;;;;;7.89;100.00;141022.91;5068280;28;20032;-69
2024/03/08 06:32:06;;;;;;;47.83;32.78;;;;;;;7.28;100.00;140926.91;5068386;28;20119;-69
2024/03/08 06:34:35;;;;;;;46.90;33.63;;;;;;;7.86;100.00;140907.09;5067305;28;20036;-69
2024/03/08 06:37:01;;;;;;;42.35;31.05;;;;;;;7.19;100.00;140904.41;5049909;28;20059;-69
2024/03/08 06:39:28;;;;;;;50.97;34.83;;;;;;;7.50;100.00;140871.63;5070154;28;20028;-68
2024/03/08 06:41:54;;;;;;;60.28;39.40;;;;;;;7.33;100.00;140927.38;5072208;28;20103;-68
2024/03/08 06:44:21;;;;;;;56.55;38.92;;;;;;;7.42;100.00;140882.16;5072284;28;20032;-71
2024/03/08 06:46:48;;;;;;;54.80;38.15;;;;;;;7.36;100.00;140899.84;5072732;28;20413;-68
2024/03/08 06:49:13;;;;;;;45.10;30.95;;;;;;;6.67;100.00;140852.53;5071794;28;20031;-69
2024/03/08 06:51:40;;;;;;;42.25;30.67;;;;;;;6.65;100.00;140826.16;5054137;28;20029;-70
2024/03/08 06:54:08;;;;;;;44.10;31.50;;;;;;;7.31;100.00;140932.84;5072120;28;20119;-74
2024/03/08 06:56:37;;;;;;;49.20;33.00;;;;;;;7.50;100.00;141016.28;5071630;28;20124;-73
2024/03/08 06:59:03;;;;;;;47.25;31.27;;;;;;;7.45;100.00;140932.75;5070624;28;20028;-69
2024/03/08 07:01:31;;;;;;;41.60;27.73;;;;;;;7.46;100.00;140905.63;5072282;28;20032;-69
2024/03/08 07:03:58;;;;;;;59.15;38.45;;;;;;;7.29;100.00;140902.53;5072060;28;20024;-73
2024/03/08 07:06:23;;;;;;;54.05;33.28;;;;;;;7.90;100.00;141052.25;5070822;28;20048;-68
2024/03/08 07:08:49;;;;;;;51.80;32.22;;;;;;;7.64;100.00;141078.81;5070459;28;20570;-68
2024/03/08 07:11:18;;;;;;;47.15;29.52;;;;;;;7.76;100.00;141071.41;5053115;28;20040;-69
2024/03/08 07:13:45;;;;;;;41.92;27.48;;;;;;;7.37;100.00;140884.28;5071571;28;20032;-68
2024/03/08 07:16:11;;;;;;;37.75;25.08;;;;;;;7.92;100.00;141027.66;5071730;28;20089;-69
2024/03/08 07:18:39;;;;;;;36.78;24.92;;;;;;;7.97;100.00;141070.22;5071551;28;20032;-69
2024/03/08 07:21:05;;;;;;;32.22;24.63;;;;;;;7.43;100.00;140928.00;5071899;28;20024;-68
2024/03/08 07:23:46;;;;;;;33.72;25.15;;;;;;;7.44;100.00;140863.88;5071927;28;20036;-69
2024/03/08 07:26:15;;;;;;;40.57;27.57;;;;;;;8.08;100.00;140981.06;5071922;28;20028;-67
2024/03/08 07:28:41;;;;;;;51.40;31.73;;;;;;;7.78;100.00;140926.53;5070199;28;20032;-69
2024/03/08 07:33:38;;;;;;;44.92;32.08;;;;;;;7.95;100.00;141035.94;5070999;28;20055;-69
2024/03/08 07:36:04;;;;;;;59.85;42.42;;;;;;;7.43;100.00;140860.13;5071696;28;20460;-71
2024/03/08 07:38:29;;;;;;;50.25;34.85;;;;;;;7.45;100.00;140894.38;5071472;28;20036;-68
2024/03/08 07:40:57;;;;;;;43.50;32.65;;;;;;;7.74;100.00;140865.84;5070172;28;20105;-68
2024/03/08 07:43:22;;;;;;;40.08;28.83;;;;;;;7.69;100.00;140916.63;5057551;28;20510;-68
2024/03/08 07:45:48;;;;;;;50.03;36.25;;;;;;;8.06;100.00;141033.81;5062898;28;20028;-68
2024/03/08 07:48:13;;;;;;;42.20;30.80;;;;;;;8.19;100.00;141013.44;5070836;28;20029;-68
2024/03/08 07:50:40;;;;;;;57.22;38.00;;;;;;;7.75;100.00;140891.25;5069479;28;20426;-69
2024/03/08 07:53:06;;;;;;;84.00;51.80;;;;;;;7.68;100.00;140929.63;5061556;28;20036;-69
2024/03/08 07:55:35;;;;;;;63.85;35.47;;;;;;;7.47;100.00;140931.00;5070811;28;20503;-76
2024/03/08 07:58:03;;;;;;;60.58;32.55;;;;;;;7.81;100.00;141023.22;5065174;28;20465;-69
2024/03/08 08:00:31;;;;;;;61.65;37.67;;;;;;;7.86;100.00;140991.56;5070676;28;20040;-69
2024/03/08 08:02:57;;;;;;;41.90;26.33;;;;;;;7.42;100.00;140892.41;5070865;28;20032;-68
2024/03/08 08:05:22;;;;;;;49.33;29.65;;;;;;;8.09;100.00;141019.28;5070823;28;20039;-69
2024/03/08 08:07:48;;;;;;;47.85;31.98;;;;;;;7.41;100.00;140890.00;5070519;28;20032;-70
2024/03/08 08:10:18;;;;;;;60.55;35.30;;;;;;;7.97;100.00;141043.25;5070366;28;20039;-70
2024/03/08 08:12:44;;;;;;;57.83;36.05;;;;;;;7.18;100.00;140925.03;5070943;28;20483;-70
2024/03/08 08:15:09;;;;;;;42.38;29.83;;;;;;;7.31;100.00;140948.19;5069544;28;20028;-70
2024/03/08 08:17:35;;;;;;;42.88;28.67;;;;;;;7.00;100.00;140892.41;5070407;28;20028;-70
2024/03/08 08:20:00;;;;;;;51.45;31.27;;;;;;;7.67;100.00;140977.22;5069630;28;20484;-70
2024/03/08 08:22:26;;;;;;;47.45;32.13;;;;;;;7.51;100.00;140922.56;5059516;28;20032;-70
2024/03/08 08:24:52;;;;;;;47.17;29.58;;;;;;;7.04;100.00;140875.13;5069549;28;20441;-70
2024/03/08 08:27:17;;;;;;;40.22;25.85;;;;;;;7.36;100.00;140934.47;5070499;28;20094;-70
2024/03/08 08:29:43;;;;;;;39.95;26.67;;;;;;;7.95;100.00;141023.13;5059452;28;20442;-68
2024/03/08 08:32:09;;;;;;;40.10;26.83;;;;;;;7.55;100.00;140918.06;5068040;28;20041;-69
2024/03/08 08:34:34;;;;;;;34.78;24.05;;;;;;;7.65;100.00;141009.50;5069888;28;20071;-68
2024/03/08 08:37:00;;;;;;;44.35;27.67;;;;;;;7.77;100.00;141077.72;5070793;28;20029;-69
2024/03/08 08:39:26;;;;;;;40.60;27.48;;;;;;;7.29;100.00;140846.25;5070032;28;20502;-68
2024/03/08 08:41:52;;;;;;;36.38;24.17;;;;;;;7.47;100.00;140984.75;5057820;28;20067;-69
2024/03/08 08:44:17;;;;;;;42.00;25.98;;;;;;;7.30;100.00;140945.81;5070086;28;20052;-69
2024/03/08 08:46:43;;;;;;;41.60;28.67;;;;;;;7.56;100.00;141026.56;5068749;28;20060;-68
2024/03/08 08:49:10;;;;;;;36.00;24.75;;;;;;;7.19;100.00;140866.03;5069920;28;20112;-69
2024/03/08 08:51:36;;;;;;;41.35;27.17;;;;;;;7.93;100.00;141040.25;5070136;28;20119;-68
2024/03/08 08:54:02;;;;;;;33.80;22.38;;;;;;;7.15;100.00;140925.59;5068605;28;20063;-69
2024/03/08 08:56:28;;;;;;;30.58;21.67;;;;;;;7.51;100.00;140958.41;5058675;28;20075;-69
2024/03/08 08:58:54;;;;;;;35.45;21.80;;;;;;;7.16;100.00;140798.72;5068460;28;20062;-74
2024/03/08 09:01:20;;;;;;;43.08;27.98;;;;;;;7.90;100.00;141021.53;5069462;28;21773;-68
2024/03/08 09:03:46;;;;;;;34.67;25.63;;;;;;;7.54;100.00;140916.91;5069306;28;20043;-69
2024/03/08 09:06:13;;;;;;;39.63;26.77;;;;;;;7.72;100.00;140935.34;5065881;28;20043;-69
2024/03/08 09:08:41;;;;;;;37.90;26.05;;;;;;;7.57;100.00;140917.69;5051587;28;20025;-68
2024/03/08 09:11:07;;;;;;;30.48;20.75;;;;;;;8.10;100.00;141119.00;5067996;28;20116;-68
2024/03/08 09:13:36;;;;;;;31.20;21.38;;;;;;;8.11;100.00;140975.34;5068544;28;20485;-68
2024/03/08 09:16:02;;;;;;;42.65;27.25;;;;;;;7.66;100.00;140896.72;5051326;28;20103;-68
2024/03/08 09:18:29;;;;;;;39.05;27.15;;;;;;;7.47;100.00;140870.97;5051014;28;20020;-69
2024/03/08 09:20:54;;;;;;;31.42;22.63;;;;;;;7.66;100.00;140940.25;5050664;28;20521;-68
2024/03/08 09:23:20;;;;;;;28.17;20.00;;;;;;;7.18;100.00;140925.03;5066762;28;20032;-72
2024/03/08 09:25:46;;;;;;;29.90;21.52;;;;;;;7.36;100.00;140890.97;5067942;28;20535;-68
2024/03/08 09:28:12;;;;;;;33.75;23.92;;;;;;;7.70;100.00;141062.34;5068775;28;20451;-74
2024/03/08 09:30:38;;;;;;;33.08;23.05;;;;;;;7.85;100.00;140889.34;5050708;28;20062;-70
2024/03/08 09:33:05;;;;;;;27.27;20.33;;;;;;;8.06;100.00;141076.22;5067360;28;20095;-69
2024/03/08 09:35:31;;;;;;;31.73;22.25;;;;;;;8.03;100.00;140971.75;5068784;28;20025;-68
2024/03/08 09:37:56;;;;;;;35.28;23.40;;;;;;;8.38;100.00;141003.50;5055446;28;20047;-68
2024/03/08 09:40:24;;;;;;;27.58;21.90;;;;;;;8.12;100.00;141044.34;5050939;28;20020;-70
2024/03/08 09:42:50;;;;;;;28.23;20.85;;;;;;;7.96;100.00;140994.81;5068721;28;20869;-71
2024/03/08 09:45:16;;;;;;;34.95;23.50;;;;;;;7.86;100.00;140898.00;5069200;28;20032;-70
2024/03/08 09:47:43;;;;;;;32.30;23.90;;;;;;;7.70;100.00;140917.81;5069067;28;20491;-69
2024/03/08 09:50:12;;;;;;;38.72;27.50;;;;;;;8.20;100.00;141022.31;5069100;28;20043;-68
2024/03/08 09:52:39;;;;;;;36.03;25.60;;;;;;;7.98;100.00;140968.81;5067333;28;20040;-69
2024/03/08 09:55:11;;;;;;;34.13;24.52;;;;;;;7.70;100.00;140940.84;5050151;28;20052;-71
2024/03/08 09:57:37;;;;;;;38.78;26.10;;;;;;;8.09;100.00;141019.28;5049927;28;20043;-71
2024/03/08 10:00:23;;;;;;;45.78;31.42;;;;;;;7.96;100.00;140980.81;5068553;28;20411;-69
2024/03/08 10:02:51;;;;;;;42.85;28.67;;;;;;;8.10;100.00;141016.56;5067550;28;20040;-71
2024/03/08 10:05:18;;;;;;;43.50;29.80;;;;;;;7.86;100.00;140850.75;5072747;28;20047;-68
2024/03/08 10:07:43;;;;;;;32.28;22.83;;;;;;;8.06;100.00;140976.34;5081378;28;20875;-68
2024/03/08 10:10:11;;;;;;;26.02;19.35;;;;;;;8.74;100.00;140913.13;5078851;28;20036;-70
2024/03/08 10:12:39;;;;;;;25.92;18.60;;;;;;;8.43;100.00;140998.63;5049225;28;20395;-68
2024/03/08 10:15:08;;;;;;;27.48;19.70;;;;;;;8.36;100.00;140933.34;4698669;28;10000645;-69
2024/03/08 10:17:35;;;;;;;27.50;19.13;;;;;;;8.07;100.00;140784.03;5068759;28;20058;-70
2024/03/08 10:20:01;;;;;;;24.65;18.02;;;;;;;8.23;100.00;140864.09;5068958;28;20045;-68
2024/03/08 10:22:26;;;;;;;25.73;18.80;;;;;;;8.81;100.00;140888.84;5064642;28;20040;-68
2024/03/08 10:24:52;;;;;;;25.23;17.83;;;;;;;8.50;100.00;140974.19;5048412;28;20029;-70
2024/03/08 10:27:18;;;;;;;27.08;19.85;;;;;;;8.57;100.00;140838.38;5048067;28;20036;-69
2024/03/08 10:29:47;;;;;;;27.33;20.30;;;;;;;8.77;100.00;140948.41;5065124;28;20055;-68
2024/03/08 10:32:13;;;;;;;27.02;19.17;;;;;;;8.70;100.00;140807.59;5067515;28;20528;-68
2024/03/08 10:34:38;;;;;;;25.55;18.15;;;;;;;7.96;100.00;140736.19;5076560;28;20037;-69
2024/03/08 10:37:05;;;;;;;24.30;17.48;;;;;;;8.14;100.00;140809.47;5069301;28;20029;-70
2024/03/08 10:39:37;;;;;;;28.05;18.40;;;;;;;8.27;100.00;140840.31;5065575;28;20032;-68
2024/03/08 10:42:04;;;;;;;23.13;16.60;;;;;;;8.18;100.00;140767.69;5063447;28;20117;-69
2024/03/08 10:44:35;;;;;;;22.75;16.33;;;;;;;8.81;100.00;140954.16;5065662;28;20029;-70
2024/03/08 10:47:09;;;;;;;19.20;15.52;;;;;;;8.86;100.00;140932.63;5065708;28;20035;-69
2024/03/08 10:49:44;;;;;;;20.35;14.43;;;;;;;8.50;100.00;140867.91;5065712;28;20064;-69
2024/03/08 10:52:12;;;;;;;21.15;15.18;;;;;;;8.60;100.00;140864.59;5050256;28;20047;-68
2024/03/08 10:54:40;;;;;;;19.00;15.65;;;;;;;8.95;100.00;140891.22;5066614;28;20032;-70
2024/03/08 10:57:08;;;;;;;21.25;16.08;;;;;;;8.77;100.00;140815.28;5048299;28;20178;-70
2024/03/08 10:59:35;;;;;;;25.52;16.65;;;;;;;8.30;100.00;140647.56;5066649;28;20036;-73
2024/03/08 11:02:00;;;;;;;20.70;15.05;;;;;;;9.10;100.00;140907.38;5067151;28;20414;-70
2024/03/08 11:04:28;;;;;;;18.20;13.10;;;;;;;9.22;100.00;140907.56;5048942;28;20040;-70
2024/03/08 11:07:02;;;;;;;16.80;12.98;;;;;;;8.62;100.00;140868.13;5049794;28;20031;-69
2024/03/08 11:09:33;;;;;;;15.85;12.77;;;;;;;8.98;100.00;140876.41;5067965;28;20123;-71